Latest Coastal Weather Observations for Wynyard

IDV60701

Issued at 8:31 pm EDT Saturday 10 December 2022 (issued every 10 minutes, with the page automatically refreshed every 10 minutes)

About coastal observations | Map of coastal stations | Coastal observations for VIC | Marine services | Other Formats
Station Details ID: 091107 Name: WYNYARD AIRPORT Lat: -41.00 Lon: 145.73 Height: 12.0 m
Data from the previous 72 hours. | See also: Recent months at Wynyard
Date/Time
EDT
Wind Sea
Height
m
Swell Vis
km
Cloud Weather Temp
°C
Press
MSL
hPa
Rain since
9am
mm
Dir  Spd
kts
Gust
kts
Height
m
Period
s
Dir
10/08:30pm NE 5 6 - - - - 10 Clear - 14.3 1013.9 0.0
10/08:00pm NNE 6 9 - - - - 10 - - 14.7 1014.0 0.0
10/07:30pm NNE 6 8 - - - - 10 - - 14.9 1013.8 0.0
10/07:00pm NE 7 9 - - - - 10 - - 15.5 1013.7 0.0
10/06:30pm NE 7 9 - - - - 10 - - 15.7 1013.6 0.0
10/06:00pm NNE 8 11 - - - - 10 Partly cloudy - 16.1 1013.9 0.0
10/05:30pm NNE 8 10 - - - - 10 - - 16.5 1014.1 0.0
10/05:00pm NNE 9 11 - - - - 10 - - 16.7 1014.6 0.0
10/04:30pm NNE 9 12 - - - - 10 - - 15.8 1014.8 0.0
10/04:00pm NNE 10 13 - - - - 10 - - 16.6 1015.0 0.0
10/03:30pm NE 10 13 - - - - 10 - - 16.6 1015.3 0.0
10/03:00pm NNE 7 9 - - - - 10 - - 17.0 1015.7 0.0
10/02:30pm NNE 8 11 - - - - 10 Partly cloudy - 16.4 1016.0 0.0
10/02:00pm NNE 9 12 - - - - 10 - - 16.4 1015.9 0.0
10/01:30pm NE 9 11 - - - - 10 - - 16.5 1016.0 0.0
10/01:00pm NNE 8 11 - - - - 10 Partly cloudy - 17.1 1016.4 0.0
10/12:30pm ENE 10 14 - - - - 10 - - 16.2 1016.6 0.0
10/12:00pm ENE 13 16 - - - - 10 Partly cloudy - 16.6 1016.7 0.0
10/11:30am E 14 19 - - - - 10 - - 17.6 1016.9 0.0
10/11:00am E 13 17 - - - - 10 Partly cloudy - 16.1 1017.2 0.0
10/10:30am E 13 16 - - - - 10 Partly cloudy - 15.3 1017.3 0.0
10/10:00am ESE 13 17 - - - - 10 Partly cloudy - 15.1 1017.4 0.0
10/09:30am E 12 16 - - - - 10 Cloudy - 14.9 1017.6 0.0
10/09:00am E 12 16 - - - - 10 Cloudy - 14.9 1017.6 0.0
10/08:30am E 14 19 - - - - 10 Partly cloudy - 14.6 1017.4 0.0
10/08:00am E 11 17 - - - - 10 Cloudy - 14.7 1017.1 0.0
10/07:30am ESE 9 12 - - - - 10 Partly cloudy - 13.7 1016.9 0.0
10/07:00am SE 7 9 - - - - 10 Cloudy - 13.3 1016.8 0.0
10/06:30am SE 6 9 - - - - 10 Cloudy - 12.5 1016.7 0.0
10/06:00am SE 7 9 - - - - 10 Cloudy - 12.2 1016.5 0.0
10/05:30am SE 5 7 - - - - 10 Cloudy - 12.2 1016.4 0.0
10/05:00am SSW 1 5 - - - - 10 Cloudy - 11.4 1016.4 0.0
10/04:30am WNW 5 5 - - - - 10 Cloudy - 10.7 1016.4 0.0
10/04:00am W 3 5 - - - - 10 Cloudy - 10.1 1016.4 0.0
10/03:30am W 4 6 - - - - 10 Cloudy - 9.5 1016.5 0.0
10/03:00am W 5 6 - - - - 10 Partly cloudy - 8.1 1016.6 0.0
10/02:30am W 5 5 - - - - 10 - - 7.1 1016.6 0.0
10/02:00am W 4 5 - - - - 10 - - 7.5 1016.7 0.0
10/01:30am W 4 5 - - - - 10 - - 8.1 1016.9 0.0
10/01:00am SW 4 5 - - - - 10 - - 8.0 1016.8 0.0
10/12:30am W 6 8 - - - - 10 - - 9.6 1016.8 0.0
10/12:00am WNW 7 8 - - - - 10 Mostly clear - 10.9 1016.5 0.0
 
Date/Time
EDT
Wind Sea
Height
m
Swell Vis
km
Cloud Weather Temp
°C
Press
MSL
hPa
Rain since
9am
mm
Dir  Spd
kts
Gust
kts
Height
m
Period
s
Dir
09/11:30pm W 7 8 - - - - 10 - - 11.3 1016.5 0.0
09/11:00pm W 7 11 - - - - 10 - - 12.0 1016.6 0.0
09/10:30pm WSW 6 9 - - - - 10 - - 12.2 1016.6 0.0
09/10:00pm SSW 6 10 - - - - 10 - - 12.8 1016.5 0.0
09/09:30pm SSW 9 13 - - - - 10 - - 13.4 1016.2 0.0
09/09:00pm SSW 10 16 - - - - 10 - - 14.1 1016.2 0.0
09/08:30pm SSW 11 19 - - - - 10 - - 15.0 1015.9 0.0
09/08:00pm SSW 8 12 - - - - 10 - - 16.0 1015.6 0.0
09/07:30pm SSW 11 15 - - - - 10 - - 17.1 1015.4 0.0
09/07:00pm SSW 11 16 - - - - 10 - - 18.2 1015.1 0.0
09/06:30pm S 8 13 - - - - 10 - - 19.1 1014.8 0.0
09/06:00pm S 10 16 - - - - 10 Mostly clear - 19.4 1014.5 0.0
09/05:30pm S 7 14 - - - - 10 Partly cloudy - 20.3 1014.7 0.0
09/05:00pm S 7 15 - - - - 10 Partly cloudy - 20.2 1014.8 0.0
09/04:30pm S 7 13 - - - - 10 Partly cloudy - 18.9 1015.0 0.0
09/04:00pm W 4 9 - - - - 10 Partly cloudy - 20.2 1015.3 0.0
09/03:30pm SSW 7 13 - - - - 10 - - 19.1 1015.4 0.0
09/03:00pm SSW 10 14 - - - - 10 Mostly cloudy - 19.2 1015.6 0.0
09/02:30pm WSW 14 19 - - - - 10 Partly cloudy - 17.8 1015.8 0.0
09/02:00pm SW 10 16 - - - - 10 Cloudy - 17.6 1015.8 0.0
09/01:30pm SW 7 12 - - - - 10 Cloudy - 17.4 1015.9 0.0
09/01:00pm SSW 9 15 - - - - 10 Cloudy - 16.9 1016.1 0.0
09/12:30pm SSE 4 9 - - - - 10 Cloudy - 16.9 1016.3 0.0
09/12:00pm N 14 19 - - - - 10 Mostly cloudy - 15.7 1016.2 0.0
09/11:30am NNW 10 15 - - - - 10 Partly cloudy - 16.2 1016.4 0.0
09/11:00am NW 10 13 - - - - 10 Partly cloudy - 15.7 1016.6 0.0
09/10:30am NNE 11 15 - - - - 10 Partly cloudy - 14.7 1016.8 0.0
09/10:00am N 9 12 - - - - 10 - - 14.5 1017.1 0.0
09/09:30am N 4 7 - - - - 10 - - 13.5 1017.1 0.0
09/09:00am SSE 3 6 - - - - 10 - - 13.5 1017.1 0.0
09/08:30am SW 4 6 - - - - 10 - - 12.4 1017.2 0.0
09/08:00am SSW 5 7 - - - - 10 - - 11.0 1016.8 0.0
09/07:30am SW 5 7 - - - - 10 - - 10.1 1016.8 0.0
09/07:00am SW 6 9 - - - - 10 - - 8.3 1016.6 0.0
09/06:30am S 3 4 - - - - 10 - - 6.7 1016.6 0.0
09/06:00am NE 1 3 - - - - 10 - - 5.6 1016.3 0.0
09/05:30am SW 4 8 - - - - 10 - - 4.8 1016.1 0.0
09/05:00am SW 10 11 - - - - 10 - - 3.9 1015.9 0.0
09/04:30am S 4 6 - - - - 10 - - 5.1 1016.1 0.0
09/04:00am SE 1 4 - - - - 10 - - 5.8 1016.1 0.0
09/03:30am WSW 4 5 - - - - 10 - - 4.9 1015.9 0.0
09/03:00am SW 7 8 - - - - 10 - - 4.9 1016.0 0.0
09/02:30am SW 9 10 - - - - 10 - - 6.3 1016.0 0.0
09/02:00am SW 8 11 - - - - 10 - - 6.8 1015.8 0.0
09/01:30am SSW 7 9 - - - - 10 - - 7.1 1015.7 0.0
09/01:00am SSW 5 8 - - - - 10 - - 7.6 1015.5 0.0
09/12:30am SW 8 12 - - - - 10 - - 8.1 1015.5 0.0
09/12:00am SSW 10 14 - - - - 10 Mostly cloudy - 8.0 1015.3 0.0
 
Date/Time
EDT
Wind Sea
Height
m
Swell Vis
km
Cloud Weather Temp
°C
Press
MSL
hPa
Rain since
9am
mm
Dir  Spd
kts
Gust
kts
Height
m
Period
s
Dir
08/11:30pm SW 10 13 - - - - 10 - - 7.8 1015.3 0.0
08/11:00pm SW 8 12 - - - - 10 - - 7.6 1015.4 0.0
08/10:30pm SW 6 9 - - - - 10 - - 7.4 1015.4 0.0
08/10:00pm SW 5 6 - - - - 10 - - 7.7 1015.1 0.0
08/09:30pm SW 6 10 - - - - 10 - - 8.6 1014.7 0.0
08/09:00pm SW 10 15 - - - - 10 - - 9.5 1014.2 0.0
08/08:30pm SW 11 15 - - - - 10 - - 9.9 1013.9 0.0
08/08:00pm SSW 13 19 - - - - 10 - - 10.8 1013.2 0.0
08/07:30pm SSW 15 23 - - - - 10 - - 11.6 1013.1 0.0
08/07:16pm SSW 15 25 - - - - 10 - - 11.8 1012.7 0.0
08/07:00pm SSW 15 21 - - - - 10 Partly cloudy - 12.4 1012.3 0.0
08/06:51pm SSW 15 25 - - - - 10 Partly cloudy - 12.5 1012.3 0.0
08/06:30pm SW 16 22 - - - - 10 Partly cloudy - 12.5 1011.9 0.0
08/06:00pm SW 19 28 - - - - 10 Partly cloudy - 13.6 1011.5 0.0
08/05:30pm SW 17 27 - - - - 10 Partly cloudy - 13.5 1011.3 0.0
08/05:20pm SW 15 25 - - - - 10 Partly cloudy - 13.6 1011.1 0.0
08/05:00pm SW 13 21 - - - - 10 Partly cloudy - 14.5 1010.9 0.0
08/04:40pm SSW 15 25 - - - - 10 Partly cloudy - 14.2 1010.7 0.0
08/04:30pm SW 15 23 - - - - 10 Partly cloudy - 14.3 1010.5 0.0
08/04:00pm SW 14 20 - - - - 10 Partly cloudy - 14.5 1010.1 0.0
08/03:30pm SW 20 33 - - - - 10 Partly cloudy - 15.8 1009.9 0.0
08/03:00pm SW 17 27 - - - - 10 Partly cloudy - 15.2 1009.7 0.0
08/02:37pm SW 15 27 - - - - 10 Partly cloudy - 15.2 1009.5 0.0
08/02:30pm SW 14 22 - - - - 10 Partly cloudy - 15.1 1009.4 0.0
08/02:00pm SSW 13 22 - - - - 10 Partly cloudy - 15.0 1009.6 0.0
08/01:30pm SW 19 29 - - - - 10 Partly cloudy - 13.9 1009.8 0.0
08/01:22pm SW 17 29 - - - - 10 Partly cloudy - 14.1 1009.5 0.0
08/01:21pm SW 16 29 - - - - 10 Partly cloudy - 13.7 1009.4 0.0
08/01:05pm SSW 17 27 - - - - 10 Partly cloudy - 14.3 1009.4 0.0
08/01:00pm SSW 18 27 - - - - 10 Partly cloudy - 15.0 1009.4 0.0
08/12:30pm SSW 20 34 - - - - 10 Partly cloudy - 13.2 1009.7 0.0
08/12:04pm SW 19 31 - - - - 10 Partly cloudy - 14.1 1009.3 0.0
08/12:00pm SW 19 26 - - - - 10 Mostly clear - 14.4 1009.1 0.0
08/11:30am SW 21 31 - - - - 10 Partly cloudy - 14.1 1008.9 0.0
08/11:03am SW 18 30 - - - - 10 Partly cloudy - 12.9 1008.8 0.0
08/11:00am SW 17 25 - - - - 10 Partly cloudy - 13.6 1008.8 0.0
08/10:30am SW 21 35 - - - - 10 Partly cloudy - 12.9 1008.5 0.0
08/10:08am SSW 16 27 - - - - 10 Partly cloudy - 13.1 1008.4 0.0
08/10:00am SW 18 28 - - - - 10 Partly cloudy - 12.7 1008.2 0.0
08/09:30am SSW 16 27 - - - - 10 - - 12.8 1008.0 0.0
08/09:00am SW 17 30 - - - - 10 Mostly clear - 11.7 1007.7 0.2
08/08:30am SW 19 32 - - - - 10 - - 11.3 1007.1 0.2
08/08:00am SW 16 32 - - - - 10 Partly cloudy - 10.7 1006.6 0.2
08/07:35am SW 15 25 - - - - 10 Partly cloudy - 10.2 1006.1 0.2
08/07:30am SW 14 23 - - - - 10 Partly cloudy - 10.4 1006.2 0.2
08/07:00am SW 15 27 - - - - 10 Partly cloudy - 9.5 1005.8 0.2
08/06:55am SW 15 29 - - - - 10 Partly cloudy - 9.4 1005.6 0.2
08/06:30am SW 13 22 - - - - 10 Partly cloudy - 9.0 1005.3 0.2
08/06:00am WSW 14 23 - - - - 10 Mostly clear - 8.4 1004.8 0.2
08/05:30am SW 15 29 - - - - 10 Partly cloudy - 8.4 1004.4 0.2
08/05:28am SW 15 29 - - - - 10 Partly cloudy - 8.6 1004.5 0.2
08/05:00am WSW 14 21 - - - - 10 - - 8.2 1004.0 0.2
08/04:30am WSW 11 18 - - - - 10 - - 8.4 1003.6 0.2
08/04:00am SW 11 18 - - - - 10 - - 8.2 1003.4 0.2
08/03:30am W 11 18 - - - - 10 - - 7.9 1003.2 0.2
08/03:00am W 11 18 - - - - 10 - - 7.8 1003.1 0.2
08/02:30am WSW 14 21 - - - - 10 Partly cloudy - 8.2 1002.9 0.2
08/02:00am WSW 15 24 - - - - 10 - - 8.2 1002.6 0.2
08/01:35am WSW 17 28 - - - - 10 - - 8.7 1002.3 0.2
08/01:30am WSW 17 26 - - - - 10 - - 8.9 1002.3 0.2
08/01:28am WSW 16 26 - - - - 10 - - 8.9 1002.3 0.2
08/01:00am SW 16 23 - - - - 10 - - 8.9 1002.2 0.2
08/12:30am WSW 14 20 - - - - 10 - - 8.5 1002.2 0.2
08/12:11am WSW 15 25 - - - - 10 - - 8.5 1002.1 0.2
08/12:00am WSW 11 16 - - - - 10 Mostly cloudy Rain 8.3 1002.1 0.2
 
Date/Time
EDT
Wind Sea
Height
m
Swell Vis
km
Cloud Weather Temp
°C
Press
MSL
hPa
Rain since
9am
mm
Dir  Spd
kts
Gust
kts
Height
m
Period
s
Dir
07/11:30pm WSW 17 24 - - - - 10 Partly cloudy - 8.1 1001.8 0.2
07/11:15pm WSW 17 29 - - - - 10 Partly cloudy - 8.4 1002.1 0.0
07/11:00pm WSW 18 25 - - - - 10 Partly cloudy - 8.4 1002.1 0.0
07/10:30pm WSW 20 29 - - - - 10 Partly cloudy - 9.2 1001.6 0.0
07/10:24pm WSW 19 29 - - - - 10 Partly cloudy - 9.4 1001.5 0.0
07/10:00pm WSW 11 17 - - - - 10 Partly cloudy - 9.9 1001.1 0.0
07/09:30pm W 13 18 - - - - 10 Partly cloudy - 10.7 1000.6 0.0
07/09:00pm W 11 16 - - - - 10 Cloudy - 11.0 1000.2 0.0

Other formats

Comma delimited format used in spreadsheet applications
http://www.bom.gov.au/fwo/IDV60701/IDV60701.95957.axf

JavaScript Object Notation format (JSON) in row-major order
http://www.bom.gov.au/fwo/IDV60701/IDV60701.95957.json

Data quality

Most of these data are generated automatically and are frequently updated. Quality checks on data are not normally performed. It is possible for incorrect values to appear. Refer to information at About Latest Weather Observations and please check the disclaimer before using these data.